sensor_id;sensor_type;location;lat;lon;timestamp;P1;durP1;ratioP1;P2;durP2;ratioP2
41263;SDS011;26998;48.714;9.414;2023-07-24T00:00:03;14.25;;;8.55;;
41263;SDS011;26998;48.714;9.414;2023-07-24T00:02:29;11.90;;;8.10;;
41263;SDS011;26998;48.714;9.414;2023-07-24T00:04:56;13.45;;;8.52;;
41263;SDS011;26998;48.714;9.414;2023-07-24T00:07:23;15.68;;;8.32;;
41263;SDS011;26998;48.714;9.414;2023-07-24T00:09:49;13.35;;;8.05;;
41263;SDS011;26998;48.714;9.414;2023-07-24T00:12:16;13.30;;;8.60;;
41263;SDS011;26998;48.714;9.414;2023-07-24T00:14:42;12.88;;;8.02;;
41263;SDS011;26998;48.714;9.414;2023-07-24T00:17:09;13.13;;;8.85;;
41263;SDS011;26998;48.714;9.414;2023-07-24T00:19:36;14.63;;;8.65;;
41263;SDS011;26998;48.714;9.414;2023-07-24T00:22:03;11.90;;;7.85;;
41263;SDS011;26998;48.714;9.414;2023-07-24T00:24:30;13.85;;;8.60;;
41263;SDS011;26998;48.714;9.414;2023-07-24T00:26:58;13.60;;;8.73;;
41263;SDS011;26998;48.714;9.414;2023-07-24T00:29:24;13.90;;;8.52;;
41263;SDS011;26998;48.714;9.414;2023-07-24T00:31:51;13.52;;;7.68;;
41263;SDS011;26998;48.714;9.414;2023-07-24T00:34:18;13.48;;;8.15;;
41263;SDS011;26998;48.714;9.414;2023-07-24T00:36:44;14.77;;;8.60;;
41263;SDS011;26998;48.714;9.414;2023-07-24T00:39:11;11.40;;;7.90;;
41263;SDS011;26998;48.714;9.414;2023-07-24T00:41:40;10.00;;;7.82;;
41263;SDS011;26998;48.714;9.414;2023-07-24T00:44:06;12.52;;;8.32;;
41263;SDS011;26998;48.714;9.414;2023-07-24T00:46:33;11.38;;;7.85;;
41263;SDS011;26998;48.714;9.414;2023-07-24T00:49:02;12.52;;;8.52;;
41263;SDS011;26998;48.714;9.414;2023-07-24T00:51:30;13.48;;;8.60;;
41263;SDS011;26998;48.714;9.414;2023-07-24T00:54:01;15.73;;;8.88;;
41263;SDS011;26998;48.714;9.414;2023-07-24T00:56:29;13.02;;;8.90;;
41263;SDS011;26998;48.714;9.414;2023-07-24T00:59:00;23.15;;;9.82;;
41263;SDS011;26998;48.714;9.414;2023-07-24T01:01:27;11.45;;;7.80;;
41263;SDS011;26998;48.714;9.414;2023-07-24T01:03:55;11.93;;;8.45;;
41263;SDS011;26998;48.714;9.414;2023-07-24T01:06:23;14.13;;;9.07;;
41263;SDS011;26998;48.714;9.414;2023-07-24T01:08:50;14.75;;;9.35;;
41263;SDS011;26998;48.714;9.414;2023-07-24T01:14:16;13.48;;;8.65;;
41263;SDS011;26998;48.714;9.414;2023-07-24T01:16:49;12.90;;;8.50;;
41263;SDS011;26998;48.714;9.414;2023-07-24T01:24:49;11.65;;;7.75;;
41263;SDS011;26998;48.714;9.414;2023-07-24T01:27:26;13.60;;;9.25;;
41263;SDS011;26998;48.714;9.414;2023-07-24T01:29:53;13.82;;;8.80;;
41263;SDS011;26998;48.714;9.414;2023-07-24T01:32:19;13.30;;;8.35;;
41263;SDS011;26998;48.714;9.414;2023-07-24T01:34:47;12.23;;;8.35;;
41263;SDS011;26998;48.714;9.414;2023-07-24T01:37:14;12.30;;;8.00;;
41263;SDS011;26998;48.714;9.414;2023-07-24T01:39:42;14.05;;;8.43;;
41263;SDS011;26998;48.714;9.414;2023-07-24T01:42:10;13.88;;;8.77;;
41263;SDS011;26998;48.714;9.414;2023-07-24T01:44:37;12.02;;;7.88;;
41263;SDS011;26998;48.714;9.414;2023-07-24T01:47:04;13.32;;;8.93;;
41263;SDS011;26998;48.714;9.414;2023-07-24T01:49:30;13.15;;;8.48;;
41263;SDS011;26998;48.714;9.414;2023-07-24T01:51:57;14.55;;;8.45;;
41263;SDS011;26998;48.714;9.414;2023-07-24T01:54:24;14.05;;;9.13;;
41263;SDS011;26998;48.714;9.414;2023-07-24T01:56:50;12.50;;;8.57;;
41263;SDS011;26998;48.714;9.414;2023-07-24T01:59:18;11.27;;;8.07;;
41263;SDS011;26998;48.714;9.414;2023-07-24T02:01:44;11.98;;;8.60;;
41263;SDS011;26998;48.714;9.414;2023-07-24T02:04:11;13.07;;;8.85;;
41263;SDS011;26998;48.714;9.414;2023-07-24T02:06:37;15.85;;;9.43;;
41263;SDS011;26998;48.714;9.414;2023-07-24T02:09:04;11.48;;;8.77;;
41263;SDS011;26998;48.714;9.414;2023-07-24T02:11:30;13.13;;;9.52;;
41263;SDS011;26998;48.714;9.414;2023-07-24T02:13:57;13.65;;;8.80;;
41263;SDS011;26998;48.714;9.414;2023-07-24T02:16:23;14.70;;;7.95;;
41263;SDS011;26998;48.714;9.414;2023-07-24T02:18:50;12.65;;;8.50;;
41263;SDS011;26998;48.714;9.414;2023-07-24T02:21:16;13.05;;;8.43;;
41263;SDS011;26998;48.714;9.414;2023-07-24T02:23:43;14.88;;;9.15;;
41263;SDS011;26998;48.714;9.414;2023-07-24T02:26:11;14.75;;;9.45;;
41263;SDS011;26998;48.714;9.414;2023-07-24T02:28:38;14.38;;;8.70;;
41263;SDS011;26998;48.714;9.414;2023-07-24T02:31:05;13.07;;;8.63;;
41263;SDS011;26998;48.714;9.414;2023-07-24T02:33:31;13.35;;;8.65;;
41263;SDS011;26998;48.714;9.414;2023-07-24T02:35:58;13.45;;;8.80;;
41263;SDS011;26998;48.714;9.414;2023-07-24T02:38:25;14.63;;;9.00;;
41263;SDS011;26998;48.714;9.414;2023-07-24T02:40:51;13.52;;;8.32;;
41263;SDS011;26998;48.714;9.414;2023-07-24T02:43:18;12.80;;;8.63;;
41263;SDS011;26998;48.714;9.414;2023-07-24T02:45:44;11.82;;;8.70;;
41263;SDS011;26998;48.714;9.414;2023-07-24T02:48:11;13.75;;;9.20;;
41263;SDS011;26998;48.714;9.414;2023-07-24T02:50:37;13.75;;;8.85;;
41263;SDS011;26998;48.714;9.414;2023-07-24T02:53:04;13.65;;;8.98;;
41263;SDS011;26998;48.714;9.414;2023-07-24T02:55:30;12.60;;;8.73;;
41263;SDS011;26998;48.714;9.414;2023-07-24T02:57:57;11.63;;;8.70;;
41263;SDS011;26998;48.714;9.414;2023-07-24T03:00:24;15.98;;;9.23;;
41263;SDS011;26998;48.714;9.414;2023-07-24T03:02:52;14.02;;;8.77;;
41263;SDS011;26998;48.714;9.414;2023-07-24T03:05:19;15.48;;;8.55;;
41263;SDS011;26998;48.714;9.414;2023-07-24T03:07:45;15.52;;;9.52;;
41263;SDS011;26998;48.714;9.414;2023-07-24T03:10:11;15.95;;;9.27;;
41263;SDS011;26998;48.714;9.414;2023-07-24T03:12:39;13.90;;;8.60;;
41263;SDS011;26998;48.714;9.414;2023-07-24T03:15:06;13.70;;;9.18;;
41263;SDS011;26998;48.714;9.414;2023-07-24T03:17:33;13.45;;;9.30;;
41263;SDS011;26998;48.714;9.414;2023-07-24T03:20:07;11.95;;;8.75;;
41263;SDS011;26998;48.714;9.414;2023-07-24T03:22:34;14.15;;;8.68;;
41263;SDS011;26998;48.714;9.414;2023-07-24T03:25:01;13.02;;;8.73;;
41263;SDS011;26998;48.714;9.414;2023-07-24T03:27:27;12.13;;;7.82;;
41263;SDS011;26998;48.714;9.414;2023-07-24T03:29:54;13.77;;;8.90;;
41263;SDS011;26998;48.714;9.414;2023-07-24T03:32:21;14.73;;;9.23;;
41263;SDS011;26998;48.714;9.414;2023-07-24T03:34:47;13.13;;;9.02;;
41263;SDS011;26998;48.714;9.414;2023-07-24T03:37:14;14.45;;;9.18;;
41263;SDS011;26998;48.714;9.414;2023-07-24T03:39:40;13.48;;;8.40;;
41263;SDS011;26998;48.714;9.414;2023-07-24T03:42:09;12.40;;;8.95;;
41263;SDS011;26998;48.714;9.414;2023-07-24T03:44:36;15.27;;;8.90;;
41263;SDS011;26998;48.714;9.414;2023-07-24T03:47:02;17.13;;;9.55;;
41263;SDS011;26998;48.714;9.414;2023-07-24T03:49:29;17.42;;;9.65;;
41263;SDS011;26998;48.714;9.414;2023-07-24T03:51:56;12.77;;;9.02;;
41263;SDS011;26998;48.714;9.414;2023-07-24T03:54:22;13.52;;;9.23;;
41263;SDS011;26998;48.714;9.414;2023-07-24T03:56:49;13.45;;;8.75;;
41263;SDS011;26998;48.714;9.414;2023-07-24T03:59:15;13.02;;;9.27;;
41263;SDS011;26998;48.714;9.414;2023-07-24T04:01:42;13.82;;;8.48;;
41263;SDS011;26998;48.714;9.414;2023-07-24T04:04:08;12.75;;;9.23;;
41263;SDS011;26998;48.714;9.414;2023-07-24T04:06:35;12.25;;;8.88;;
41263;SDS011;26998;48.714;9.414;2023-07-24T04:09:01;16.35;;;9.45;;
41263;SDS011;26998;48.714;9.414;2023-07-24T04:11:28;14.27;;;8.27;;
41263;SDS011;26998;48.714;9.414;2023-07-24T04:13:54;14.75;;;9.68;;
41263;SDS011;26998;48.714;9.414;2023-07-24T04:16:21;13.85;;;9.10;;
41263;SDS011;26998;48.714;9.414;2023-07-24T04:18:47;14.40;;;8.20;;
41263;SDS011;26998;48.714;9.414;2023-07-24T04:21:14;12.30;;;8.65;;
41263;SDS011;26998;48.714;9.414;2023-07-24T04:23:40;17.50;;;9.75;;
41263;SDS011;26998;48.714;9.414;2023-07-24T04:26:07;16.23;;;9.20;;
41263;SDS011;26998;48.714;9.414;2023-07-24T04:28:33;14.57;;;8.88;;
41263;SDS011;26998;48.714;9.414;2023-07-24T04:31:00;15.15;;;8.32;;
41263;SDS011;26998;48.714;9.414;2023-07-24T04:33:27;14.57;;;8.85;;
41263;SDS011;26998;48.714;9.414;2023-07-24T04:35:54;14.90;;;9.07;;
41263;SDS011;26998;48.714;9.414;2023-07-24T04:38:22;18.60;;;9.68;;
41263;SDS011;26998;48.714;9.414;2023-07-24T04:40:49;13.85;;;9.15;;
41263;SDS011;26998;48.714;9.414;2023-07-24T04:43:15;13.90;;;9.38;;
41263;SDS011;26998;48.714;9.414;2023-07-24T04:45:42;15.05;;;9.35;;
41263;SDS011;26998;48.714;9.414;2023-07-24T04:48:08;19.08;;;9.35;;
41263;SDS011;26998;48.714;9.414;2023-07-24T04:50:35;13.13;;;9.20;;
41263;SDS011;26998;48.714;9.414;2023-07-24T04:53:01;15.73;;;9.63;;
41263;SDS011;26998;48.714;9.414;2023-07-24T04:55:28;15.27;;;9.27;;
41263;SDS011;26998;48.714;9.414;2023-07-24T04:57:54;15.25;;;9.75;;
41263;SDS011;26998;48.714;9.414;2023-07-24T05:00:21;12.43;;;9.43;;
41263;SDS011;26998;48.714;9.414;2023-07-24T05:02:48;17.70;;;9.82;;
41263;SDS011;26998;48.714;9.414;2023-07-24T05:05:15;16.65;;;9.95;;
41263;SDS011;26998;48.714;9.414;2023-07-24T05:07:41;12.20;;;7.95;;
41263;SDS011;26998;48.714;9.414;2023-07-24T05:10:08;14.52;;;8.55;;
41263;SDS011;26998;48.714;9.414;2023-07-24T05:12:35;14.55;;;8.52;;
41263;SDS011;26998;48.714;9.414;2023-07-24T05:15:01;14.85;;;9.57;;
41263;SDS011;26998;48.714;9.414;2023-07-24T05:17:28;15.05;;;8.85;;
41263;SDS011;26998;48.714;9.414;2023-07-24T05:19:55;18.38;;;9.95;;
41263;SDS011;26998;48.714;9.414;2023-07-24T05:22:21;12.45;;;8.48;;
41263;SDS011;26998;48.714;9.414;2023-07-24T05:24:50;12.93;;;9.55;;
41263;SDS011;26998;48.714;9.414;2023-07-24T05:27:16;13.35;;;8.35;;
41263;SDS011;26998;48.714;9.414;2023-07-24T05:29:43;14.50;;;9.13;;
41263;SDS011;26998;48.714;9.414;2023-07-24T05:32:09;15.38;;;9.15;;
41263;SDS011;26998;48.714;9.414;2023-07-24T05:34:36;14.80;;;8.77;;
41263;SDS011;26998;48.714;9.414;2023-07-24T05:37:02;14.90;;;9.73;;
41263;SDS011;26998;48.714;9.414;2023-07-24T05:39:29;14.13;;;9.05;;
41263;SDS011;26998;48.714;9.414;2023-07-24T05:44:41;14.70;;;9.30;;
41263;SDS011;26998;48.714;9.414;2023-07-24T05:47:07;16.75;;;9.68;;
41263;SDS011;26998;48.714;9.414;2023-07-24T05:49:34;16.75;;;9.82;;
41263;SDS011;26998;48.714;9.414;2023-07-24T05:52:01;12.52;;;9.32;;
41263;SDS011;26998;48.714;9.414;2023-07-24T05:54:27;15.70;;;9.75;;
41263;SDS011;26998;48.714;9.414;2023-07-24T05:56:54;14.50;;;9.80;;
41263;SDS011;26998;48.714;9.414;2023-07-24T05:59:20;15.30;;;9.48;;
41263;SDS011;26998;48.714;9.414;2023-07-24T06:01:48;14.45;;;9.30;;
41263;SDS011;26998;48.714;9.414;2023-07-24T06:04:15;21.30;;;9.93;;
41263;SDS011;26998;48.714;9.414;2023-07-24T06:06:41;12.00;;;8.75;;
41263;SDS011;26998;48.714;9.414;2023-07-24T06:09:09;14.20;;;9.32;;
41263;SDS011;26998;48.714;9.414;2023-07-24T06:11:36;14.63;;;9.13;;
41263;SDS011;26998;48.714;9.414;2023-07-24T06:14:04;17.20;;;9.52;;
41263;SDS011;26998;48.714;9.414;2023-07-24T06:16:34;15.93;;;10.10;;
41263;SDS011;26998;48.714;9.414;2023-07-24T06:19:01;15.50;;;9.88;;
41263;SDS011;26998;48.714;9.414;2023-07-24T06:21:28;21.63;;;10.07;;
41263;SDS011;26998;48.714;9.414;2023-07-24T06:23:57;18.50;;;9.45;;
41263;SDS011;26998;48.714;9.414;2023-07-24T06:26:24;18.02;;;9.98;;
41263;SDS011;26998;48.714;9.414;2023-07-24T06:28:50;16.63;;;10.25;;
41263;SDS011;26998;48.714;9.414;2023-07-24T06:31:20;18.83;;;9.93;;
41263;SDS011;26998;48.714;9.414;2023-07-24T06:33:46;16.63;;;9.82;;
41263;SDS011;26998;48.714;9.414;2023-07-24T06:36:14;21.25;;;10.45;;
41263;SDS011;26998;48.714;9.414;2023-07-24T06:38:41;13.70;;;9.55;;
41263;SDS011;26998;48.714;9.414;2023-07-24T06:41:08;16.65;;;10.20;;
41263;SDS011;26998;48.714;9.414;2023-07-24T06:43:34;21.80;;;11.00;;
41263;SDS011;26998;48.714;9.414;2023-07-24T06:46:01;15.23;;;9.52;;
41263;SDS011;26998;48.714;9.414;2023-07-24T06:48:27;16.17;;;10.48;;
41263;SDS011;26998;48.714;9.414;2023-07-24T06:50:54;14.60;;;9.20;;
41263;SDS011;26998;48.714;9.414;2023-07-24T06:53:20;14.55;;;9.65;;
41263;SDS011;26998;48.714;9.414;2023-07-24T06:55:47;19.55;;;9.88;;
41263;SDS011;26998;48.714;9.414;2023-07-24T06:58:17;16.90;;;9.48;;
41263;SDS011;26998;48.714;9.414;2023-07-24T07:00:44;19.33;;;10.73;;
41263;SDS011;26998;48.714;9.414;2023-07-24T07:03:12;18.50;;;9.48;;
41263;SDS011;26998;48.714;9.414;2023-07-24T07:05:39;16.42;;;9.55;;
41263;SDS011;26998;48.714;9.414;2023-07-24T07:08:05;19.85;;;9.82;;
41263;SDS011;26998;48.714;9.414;2023-07-24T07:10:32;17.95;;;10.00;;
41263;SDS011;26998;48.714;9.414;2023-07-24T07:12:58;18.60;;;9.65;;
41263;SDS011;26998;48.714;9.414;2023-07-24T07:15:25;17.38;;;9.68;;
41263;SDS011;26998;48.714;9.414;2023-07-24T07:17:53;16.90;;;9.82;;
41263;SDS011;26998;48.714;9.414;2023-07-24T07:20:20;19.45;;;9.45;;
41263;SDS011;26998;48.714;9.414;2023-07-24T07:22:47;16.35;;;10.10;;
41263;SDS011;26998;48.714;9.414;2023-07-24T07:25:13;15.88;;;8.98;;
41263;SDS011;26998;48.714;9.414;2023-07-24T07:27:40;17.38;;;10.13;;
41263;SDS011;26998;48.714;9.414;2023-07-24T07:30:07;16.00;;;9.00;;
41263;SDS011;26998;48.714;9.414;2023-07-24T07:32:35;17.15;;;8.98;;
41263;SDS011;26998;48.714;9.414;2023-07-24T07:35:02;12.68;;;9.57;;
41263;SDS011;26998;48.714;9.414;2023-07-24T07:37:29;15.73;;;9.98;;
41263;SDS011;26998;48.714;9.414;2023-07-24T07:39:57;14.93;;;9.07;;
41263;SDS011;26998;48.714;9.414;2023-07-24T07:42:27;14.30;;;9.57;;
41263;SDS011;26998;48.714;9.414;2023-07-24T07:44:54;20.88;;;10.80;;
41263;SDS011;26998;48.714;9.414;2023-07-24T07:47:24;15.77;;;10.52;;
41263;SDS011;26998;48.714;9.414;2023-07-24T07:49:50;15.45;;;9.52;;
41263;SDS011;26998;48.714;9.414;2023-07-24T07:52:17;16.05;;;9.70;;
41263;SDS011;26998;48.714;9.414;2023-07-24T07:54:47;15.35;;;9.15;;
41263;SDS011;26998;48.714;9.414;2023-07-24T07:57:15;15.30;;;9.15;;
41263;SDS011;26998;48.714;9.414;2023-07-24T07:59:42;13.85;;;8.85;;
41263;SDS011;26998;48.714;9.414;2023-07-24T08:02:08;15.77;;;9.18;;
41263;SDS011;26998;48.714;9.414;2023-07-24T08:04:37;16.13;;;9.43;;
41263;SDS011;26998;48.714;9.414;2023-07-24T08:07:03;14.57;;;9.73;;
41263;SDS011;26998;48.714;9.414;2023-07-24T08:09:30;21.80;;;9.80;;
41263;SDS011;26998;48.714;9.414;2023-07-24T08:11:58;14.40;;;9.73;;
41263;SDS011;26998;48.714;9.414;2023-07-24T08:14:24;22.23;;;10.25;;
41263;SDS011;26998;48.714;9.414;2023-07-24T08:16:51;14.95;;;9.63;;
41263;SDS011;26998;48.714;9.414;2023-07-24T08:19:20;14.60;;;9.30;;
41263;SDS011;26998;48.714;9.414;2023-07-24T08:21:47;28.92;;;10.77;;
41263;SDS011;26998;48.714;9.414;2023-07-24T08:24:15;15.32;;;9.27;;
41263;SDS011;26998;48.714;9.414;2023-07-24T08:26:44;22.02;;;10.02;;
41263;SDS011;26998;48.714;9.414;2023-07-24T08:29:11;19.13;;;9.52;;
41263;SDS011;26998;48.714;9.414;2023-07-24T08:31:38;20.45;;;9.60;;
41263;SDS011;26998;48.714;9.414;2023-07-24T08:34:05;24.10;;;10.80;;
41263;SDS011;26998;48.714;9.414;2023-07-24T08:36:32;21.02;;;10.25;;
41263;SDS011;26998;48.714;9.414;2023-07-24T08:38:58;19.50;;;9.10;;
41263;SDS011;26998;48.714;9.414;2023-07-24T08:41:25;20.80;;;9.20;;
41263;SDS011;26998;48.714;9.414;2023-07-24T08:43:52;14.48;;;9.43;;
41263;SDS011;26998;48.714;9.414;2023-07-24T08:46:19;16.13;;;10.13;;
41263;SDS011;26998;48.714;9.414;2023-07-24T08:48:46;14.13;;;9.02;;
41263;SDS011;26998;48.714;9.414;2023-07-24T08:51:13;15.30;;;9.38;;
41263;SDS011;26998;48.714;9.414;2023-07-24T08:53:42;15.27;;;8.48;;
41263;SDS011;26998;48.714;9.414;2023-07-24T08:56:10;18.25;;;9.90;;
41263;SDS011;26998;48.714;9.414;2023-07-24T08:58:37;13.95;;;9.52;;
41263;SDS011;26998;48.714;9.414;2023-07-24T09:01:04;12.43;;;8.60;;
41263;SDS011;26998;48.714;9.414;2023-07-24T09:03:32;17.23;;;9.88;;
41263;SDS011;26998;48.714;9.414;2023-07-24T09:05:59;13.48;;;8.88;;
41263;SDS011;26998;48.714;9.414;2023-07-24T09:11:01;12.18;;;8.60;;
41263;SDS011;26998;48.714;9.414;2023-07-24T09:13:32;14.05;;;8.85;;
41263;SDS011;26998;48.714;9.414;2023-07-24T09:16:03;12.43;;;8.48;;
41263;SDS011;26998;48.714;9.414;2023-07-24T09:18:40;17.48;;;9.30;;
41263;SDS011;26998;48.714;9.414;2023-07-24T09:21:10;13.00;;;7.80;;
41263;SDS011;26998;48.714;9.414;2023-07-24T09:23:36;13.20;;;8.30;;
41263;SDS011;26998;48.714;9.414;2023-07-24T09:26:06;13.32;;;8.25;;
41263;SDS011;26998;48.714;9.414;2023-07-24T09:28:34;10.52;;;8.05;;
41263;SDS011;26998;48.714;9.414;2023-07-24T09:31:02;18.58;;;8.38;;
41263;SDS011;26998;48.714;9.414;2023-07-24T09:36:04;11.88;;;7.93;;
41263;SDS011;26998;48.714;9.414;2023-07-24T09:38:31;10.32;;;7.50;;
41263;SDS011;26998;48.714;9.414;2023-07-24T09:41:00;12.52;;;7.20;;
41263;SDS011;26998;48.714;9.414;2023-07-24T09:43:28;14.07;;;7.90;;
41263;SDS011;26998;48.714;9.414;2023-07-24T09:46:05;9.95;;;7.45;;
41263;SDS011;26998;48.714;9.414;2023-07-24T09:48:32;13.32;;;7.95;;
41263;SDS011;26998;48.714;9.414;2023-07-24T09:51:02;11.98;;;7.57;;
41263;SDS011;26998;48.714;9.414;2023-07-24T09:53:33;14.35;;;8.70;;
41263;SDS011;26998;48.714;9.414;2023-07-24T09:56:04;46.38;;;11.82;;
41263;SDS011;26998;48.714;9.414;2023-07-24T09:58:32;15.75;;;8.80;;
41263;SDS011;26998;48.714;9.414;2023-07-24T10:01:04;14.13;;;8.63;;
41263;SDS011;26998;48.714;9.414;2023-07-24T10:03:33;12.18;;;8.00;;
41263;SDS011;26998;48.714;9.414;2023-07-24T10:06:20;13.52;;;8.32;;
41263;SDS011;26998;48.714;9.414;2023-07-24T10:08:47;21.30;;;8.70;;
41263;SDS011;26998;48.714;9.414;2023-07-24T10:11:15;16.33;;;9.30;;
41263;SDS011;26998;48.714;9.414;2023-07-24T10:13:42;16.30;;;10.65;;
41263;SDS011;26998;48.714;9.414;2023-07-24T10:16:09;16.30;;;9.75;;
41263;SDS011;26998;48.714;9.414;2023-07-24T10:18:41;14.32;;;9.75;;
41263;SDS011;26998;48.714;9.414;2023-07-24T10:21:10;14.02;;;9.80;;
41263;SDS011;26998;48.714;9.414;2023-07-24T10:23:44;16.67;;;10.52;;
41263;SDS011;26998;48.714;9.414;2023-07-24T10:26:15;13.82;;;9.65;;
41263;SDS011;26998;48.714;9.414;2023-07-24T10:28:47;15.65;;;9.13;;
41263;SDS011;26998;48.714;9.414;2023-07-24T10:31:20;13.50;;;9.15;;
41263;SDS011;26998;48.714;9.414;2023-07-24T10:33:49;15.35;;;10.43;;
41263;SDS011;26998;48.714;9.414;2023-07-24T10:36:18;15.48;;;9.85;;
41263;SDS011;26998;48.714;9.414;2023-07-24T10:38:53;14.38;;;9.68;;
41263;SDS011;26998;48.714;9.414;2023-07-24T10:41:22;21.88;;;10.48;;
41263;SDS011;26998;48.714;9.414;2023-07-24T10:43:50;14.55;;;9.90;;
41263;SDS011;26998;48.714;9.414;2023-07-24T10:46:34;16.20;;;10.18;;
41263;SDS011;26998;48.714;9.414;2023-07-24T10:49:02;19.67;;;9.93;;
41263;SDS011;26998;48.714;9.414;2023-07-24T10:51:29;20.10;;;12.82;;
41263;SDS011;26998;48.714;9.414;2023-07-24T10:53:56;18.58;;;11.77;;
41263;SDS011;26998;48.714;9.414;2023-07-24T10:56:23;16.23;;;10.95;;
41263;SDS011;26998;48.714;9.414;2023-07-24T10:58:49;21.58;;;11.38;;
41263;SDS011;26998;48.714;9.414;2023-07-24T11:01:16;21.98;;;11.82;;
41263;SDS011;26998;48.714;9.414;2023-07-24T11:03:44;19.15;;;9.60;;
41263;SDS011;26998;48.714;9.414;2023-07-24T11:06:18;19.52;;;9.20;;
41263;SDS011;26998;48.714;9.414;2023-07-24T11:08:52;16.90;;;9.25;;
41263;SDS011;26998;48.714;9.414;2023-07-24T11:11:29;13.82;;;8.15;;
41263;SDS011;26998;48.714;9.414;2023-07-24T11:13:58;13.35;;;7.97;;
41263;SDS011;26998;48.714;9.414;2023-07-24T11:16:25;15.27;;;8.85;;
41263;SDS011;26998;48.714;9.414;2023-07-24T11:18:52;16.40;;;8.95;;
41263;SDS011;26998;48.714;9.414;2023-07-24T11:21:20;14.40;;;8.43;;
41263;SDS011;26998;48.714;9.414;2023-07-24T11:23:52;13.10;;;8.70;;
41263;SDS011;26998;48.714;9.414;2023-07-24T11:26:23;15.65;;;8.77;;
41263;SDS011;26998;48.714;9.414;2023-07-24T11:28:51;11.90;;;7.78;;
41263;SDS011;26998;48.714;9.414;2023-07-24T11:31:19;11.65;;;7.80;;
41263;SDS011;26998;48.714;9.414;2023-07-24T11:33:46;10.15;;;7.60;;
41263;SDS011;26998;48.714;9.414;2023-07-24T11:36:13;13.18;;;8.02;;
41263;SDS011;26998;48.714;9.414;2023-07-24T11:38:41;10.00;;;7.20;;
41263;SDS011;26998;48.714;9.414;2023-07-24T11:41:08;13.75;;;8.85;;
41263;SDS011;26998;48.714;9.414;2023-07-24T11:43:35;11.40;;;7.75;;
41263;SDS011;26998;48.714;9.414;2023-07-24T11:46:01;11.10;;;7.25;;
41263;SDS011;26998;48.714;9.414;2023-07-24T11:48:29;11.88;;;7.43;;
41263;SDS011;26998;48.714;9.414;2023-07-24T11:50:56;10.10;;;6.85;;
41263;SDS011;26998;48.714;9.414;2023-07-24T11:53:24;13.75;;;7.63;;
41263;SDS011;26998;48.714;9.414;2023-07-24T11:55:59;13.10;;;8.27;;
41263;SDS011;26998;48.714;9.414;2023-07-24T11:58:27;13.65;;;8.32;;
41263;SDS011;26998;48.714;9.414;2023-07-24T12:00:57;13.52;;;7.88;;
41263;SDS011;26998;48.714;9.414;2023-07-24T12:03:26;14.18;;;8.35;;
41263;SDS011;26998;48.714;9.414;2023-07-24T12:05:55;14.13;;;8.80;;
41263;SDS011;26998;48.714;9.414;2023-07-24T12:08:30;13.35;;;8.85;;
41263;SDS011;26998;48.714;9.414;2023-07-24T12:10:59;18.00;;;8.25;;
41263;SDS011;26998;48.714;9.414;2023-07-24T12:13:26;11.40;;;7.30;;
41263;SDS011;26998;48.714;9.414;2023-07-24T12:15:52;10.82;;;6.88;;
41263;SDS011;26998;48.714;9.414;2023-07-24T12:18:21;10.50;;;7.65;;
41263;SDS011;26998;48.714;9.414;2023-07-24T12:20:48;13.00;;;7.43;;
41263;SDS011;26998;48.714;9.414;2023-07-24T12:23:15;12.48;;;7.55;;
41263;SDS011;26998;48.714;9.414;2023-07-24T12:25:41;7.40;;;6.03;;
41263;SDS011;26998;48.714;9.414;2023-07-24T12:28:08;9.63;;;7.88;;
41263;SDS011;26998;48.714;9.414;2023-07-24T12:30:34;10.50;;;6.68;;
41263;SDS011;26998;48.714;9.414;2023-07-24T12:33:01;8.70;;;6.38;;
41263;SDS011;26998;48.714;9.414;2023-07-24T12:35:28;9.30;;;7.07;;
41263;SDS011;26998;48.714;9.414;2023-07-24T12:37:54;10.43;;;6.93;;
41263;SDS011;26998;48.714;9.414;2023-07-24T12:40:21;10.30;;;7.18;;
41263;SDS011;26998;48.714;9.414;2023-07-24T12:42:47;8.27;;;6.30;;
41263;SDS011;26998;48.714;9.414;2023-07-24T12:45:17;8.70;;;6.82;;
41263;SDS011;26998;48.714;9.414;2023-07-24T12:47:44;11.32;;;6.68;;
41263;SDS011;26998;48.714;9.414;2023-07-24T12:50:11;10.88;;;6.93;;
41263;SDS011;26998;48.714;9.414;2023-07-24T12:52:37;9.68;;;6.95;;
41263;SDS011;26998;48.714;9.414;2023-07-24T12:55:05;9.32;;;5.78;;
41263;SDS011;26998;48.714;9.414;2023-07-24T12:57:31;9.77;;;6.07;;
41263;SDS011;26998;48.714;9.414;2023-07-24T12:59:58;10.02;;;6.03;;
41263;SDS011;26998;48.714;9.414;2023-07-24T13:02:24;7.35;;;6.03;;
41263;SDS011;26998;48.714;9.414;2023-07-24T13:04:52;8.95;;;6.40;;
41263;SDS011;26998;48.714;9.414;2023-07-24T13:07:18;7.57;;;5.65;;
41263;SDS011;26998;48.714;9.414;2023-07-24T13:09:45;8.10;;;5.65;;
41263;SDS011;26998;48.714;9.414;2023-07-24T13:12:12;8.70;;;5.18;;
41263;SDS011;26998;48.714;9.414;2023-07-24T13:14:38;7.70;;;5.80;;
41263;SDS011;26998;48.714;9.414;2023-07-24T13:17:08;6.93;;;5.60;;
41263;SDS011;26998;48.714;9.414;2023-07-24T13:19:35;6.78;;;5.60;;
41263;SDS011;26998;48.714;9.414;2023-07-24T13:22:02;7.40;;;5.63;;
41263;SDS011;26998;48.714;9.414;2023-07-24T13:24:29;8.07;;;5.57;;
41263;SDS011;26998;48.714;9.414;2023-07-24T13:26:55;6.85;;;5.22;;
41263;SDS011;26998;48.714;9.414;2023-07-24T13:29:22;5.85;;;5.25;;
41263;SDS011;26998;48.714;9.414;2023-07-24T13:31:51;6.75;;;5.20;;
41263;SDS011;26998;48.714;9.414;2023-07-24T13:34:17;6.50;;;5.45;;
41263;SDS011;26998;48.714;9.414;2023-07-24T13:36:45;7.20;;;5.35;;
41263;SDS011;26998;48.714;9.414;2023-07-24T13:39:12;7.00;;;5.03;;
41263;SDS011;26998;48.714;9.414;2023-07-24T13:41:39;7.97;;;5.50;;
41263;SDS011;26998;48.714;9.414;2023-07-24T13:44:06;7.43;;;5.43;;
41263;SDS011;26998;48.714;9.414;2023-07-24T13:46:32;8.68;;;5.22;;
41263;SDS011;26998;48.714;9.414;2023-07-24T13:48:59;5.88;;;4.88;;
41263;SDS011;26998;48.714;9.414;2023-07-24T13:51:26;6.28;;;4.97;;
41263;SDS011;26998;48.714;9.414;2023-07-24T13:53:52;6.75;;;5.03;;
41263;SDS011;26998;48.714;9.414;2023-07-24T13:56:19;6.88;;;4.95;;
41263;SDS011;26998;48.714;9.414;2023-07-24T13:58:48;5.72;;;5.10;;
41263;SDS011;26998;48.714;9.414;2023-07-24T14:01:15;6.13;;;5.03;;
41263;SDS011;26998;48.714;9.414;2023-07-24T14:03:42;6.60;;;4.85;;
41263;SDS011;26998;48.714;9.414;2023-07-24T14:06:09;6.35;;;5.10;;
41263;SDS011;26998;48.714;9.414;2023-07-24T14:08:37;7.38;;;4.90;;
41263;SDS011;26998;48.714;9.414;2023-07-24T14:11:03;7.00;;;5.72;;
41263;SDS011;26998;48.714;9.414;2023-07-24T14:13:30;7.90;;;5.32;;
41263;SDS011;26998;48.714;9.414;2023-07-24T14:15:56;7.82;;;5.28;;
41263;SDS011;26998;48.714;9.414;2023-07-24T14:18:23;9.23;;;5.50;;
41263;SDS011;26998;48.714;9.414;2023-07-24T14:20:50;5.70;;;4.88;;
41263;SDS011;26998;48.714;9.414;2023-07-24T14:23:16;5.43;;;4.65;;
41263;SDS011;26998;48.714;9.414;2023-07-24T14:25:42;6.20;;;4.72;;
41263;SDS011;26998;48.714;9.414;2023-07-24T14:28:09;5.43;;;4.03;;
41263;SDS011;26998;48.714;9.414;2023-07-24T14:30:36;5.32;;;3.70;;
41263;SDS011;26998;48.714;9.414;2023-07-24T14:33:02;6.35;;;4.40;;
41263;SDS011;26998;48.714;9.414;2023-07-24T14:35:29;8.52;;;4.32;;
41263;SDS011;26998;48.714;9.414;2023-07-24T14:37:58;8.70;;;4.70;;
41263;SDS011;26998;48.714;9.414;2023-07-24T14:40:25;5.68;;;4.18;;
41263;SDS011;26998;48.714;9.414;2023-07-24T14:42:51;4.80;;;3.88;;
41263;SDS011;26998;48.714;9.414;2023-07-24T14:45:18;5.13;;;4.07;;
41263;SDS011;26998;48.714;9.414;2023-07-24T14:47:45;5.38;;;4.13;;
41263;SDS011;26998;48.714;9.414;2023-07-24T14:50:13;8.68;;;4.10;;
41263;SDS011;26998;48.714;9.414;2023-07-24T14:52:40;4.00;;;3.60;;